Time;durP1;ratioP1;P1;durP2;ratioP2;P2;SDS_P1;SDS_P2;PMS_P1;PMS_P2;Temp;Humidity;BMP_temperature;BMP_pressure;BME280_temperature;BME280_humidity;BME280_pressure;Samples;Min_cycle;Max_cycle;Signal;HPM_P1;HPM_P2
2022/10/04 00:02:16;;;;;;;7.10;2.00;;;;;;;6.75;100.00;97032.47;5039760;28;20202;-73
2022/10/04 00:04:47;;;;;;;3.63;1.50;;;;;;;6.82;100.00;97025.75;5039593;28;20197;-73
2022/10/04 00:07:19;;;;;;;2.57;1.47;;;;;;;6.73;100.00;97017.84;5039453;28;20568;-73
2022/10/04 00:09:51;;;;;;;5.67;2.13;;;;;;;6.74;100.00;97027.38;5038950;28;20229;-73
2022/10/04 00:12:22;;;;;;;6.57;1.83;;;;;;;6.82;100.00;97033.59;5038977;28;21124;-73
2022/10/04 00:14:51;;;;;;;2.57;1.63;;;;;;;6.91;100.00;97029.31;5038923;28;20207;-74
2022/10/04 00:17:23;;;;;;;4.40;1.90;;;;;;;7.03;100.00;97023.84;5039302;28;20212;-74
2022/10/04 00:19:51;;;;;;;2.20;1.60;;;;;;;6.86;100.00;97023.66;5039288;28;20697;-73
2022/10/04 00:22:20;;;;;;;4.83;2.30;;;;;;;6.79;100.00;97018.13;5038888;28;20193;-73
2022/10/04 00:25:20;;;;;;;5.60;1.70;;;;;;;6.91;100.00;97021.47;5038848;28;20205;-73
2022/10/04 00:28:24;;;;;;;2.40;1.50;;;;;;;6.92;100.00;97029.19;5038944;28;20251;-74
2022/10/04 00:31:07;;;;;;;3.10;1.73;;;;;;;6.83;100.00;97023.94;5038729;28;20232;-74
2022/10/04 00:33:35;;;;;;;6.47;2.20;;;;;;;6.62;100.00;97017.97;5038426;28;20212;-73
2022/10/04 00:36:32;;;;;;;4.13;1.50;;;;;;;6.74;100.00;97019.50;5038778;28;20197;-73
2022/10/04 00:39:13;;;;;;;3.80;1.90;;;;;;;6.60;100.00;97021.69;5038306;28;20205;-74
2022/10/04 00:41:53;;;;;;;4.03;1.97;;;;;;;6.62;100.00;97017.97;5039197;28;20257;-74
2022/10/04 00:44:28;;;;;;;4.37;1.97;;;;;;;6.62;100.00;97017.97;5038319;28;20208;-73
2022/10/04 00:46:57;;;;;;;2.80;1.90;;;;;;;6.67;100.00;97016.59;5038297;28;20239;-73
2022/10/04 00:49:29;;;;;;;3.77;1.90;;;;;;;6.66;100.00;97011.50;5038661;28;20209;-74
2022/10/04 00:52:02;;;;;;;4.93;2.23;;;;;;;6.61;100.00;97008.47;5036065;28;20229;-73
2022/10/04 00:54:34;;;;;;;8.27;2.00;;;;;;;6.67;100.00;97007.94;5037583;28;20206;-73
2022/10/04 00:57:07;;;;;;;3.33;1.80;;;;;;;6.62;100.00;97004.88;5038862;28;20205;-73
2022/10/04 00:59:37;;;;;;;4.27;1.63;;;;;;;6.63;100.00;96996.03;5038592;28;20254;-73
2022/10/04 01:02:07;;;;;;;3.33;1.90;;;;;;;6.36;100.00;96998.47;5038176;28;20194;-73
2022/10/04 01:04:42;;;;;;;3.10;1.80;;;;;;;6.35;100.00;96994.22;5038174;28;20204;-73
2022/10/04 01:07:12;;;;;;;5.63;2.00;;;;;;;6.25;100.00;96995.97;5038162;28;20231;-73
2022/10/04 01:09:48;;;;;;;1.60;1.40;;;;;;;6.37;100.00;96999.31;5038292;28;20691;-73
2022/10/04 01:12:24;;;;;;;3.97;1.90;;;;;;;6.35;100.00;97001.22;5037893;28;20204;-73
2022/10/04 01:15:00;;;;;;;2.80;2.00;;;;;;;6.42;100.00;96992.69;5038253;28;20215;-73
2022/10/04 01:17:27;;;;;;;6.83;2.00;;;;;;;6.25;100.00;96995.09;5037901;28;20193;-73
2022/10/04 01:19:54;;;;;;;5.67;1.90;;;;;;;6.33;100.00;96988.25;5037658;28;20225;-73
2022/10/04 01:22:35;;;;;;;3.37;1.90;;;;;;;6.44;100.00;96985.56;5037923;28;20315;-73
2022/10/04 01:25:02;;;;;;;3.33;1.70;;;;;;;6.29;100.00;96986.06;5037501;28;20205;-74
2022/10/04 01:27:34;;;;;;;2.83;1.77;;;;;;;6.26;100.00;96976.69;5037724;28;20571;-73
2022/10/04 01:30:03;;;;;;;6.40;2.00;;;;;;;6.33;100.00;96971.75;5037918;28;20221;-74
2022/10/04 01:32:31;;;;;;;4.00;2.13;;;;;;;6.44;100.00;96967.22;5037200;28;20622;-73
2022/10/04 01:34:58;;;;;;;3.90;2.00;;;;;;;6.42;100.00;96961.28;5037581;28;20234;-73
2022/10/04 01:37:25;;;;;;;4.97;2.00;;;;;;;6.35;100.00;96975.88;5037523;28;20603;-74
2022/10/04 01:39:53;;;;;;;5.63;1.90;;;;;;;6.27;100.00;96977.50;5037821;28;20209;-74
2022/10/04 01:42:27;;;;;;;4.33;1.70;;;;;;;6.12;100.00;96968.34;5036588;28;20292;-73
2022/10/04 01:44:58;;;;;;;4.90;1.70;;;;;;;6.20;100.00;96960.69;5037940;28;20215;-73
2022/10/04 01:47:33;;;;;;;6.40;2.10;;;;;;;6.26;100.00;96953.13;5037232;28;20205;-73
2022/10/04 01:50:05;;;;;;;4.00;2.07;;;;;;;6.35;100.00;96960.19;5036353;28;20232;-73
2022/10/04 01:52:35;;;;;;;2.50;1.53;;;;;;;6.27;100.00;96959.19;5035513;28;20320;-73
2022/10/04 01:55:07;;;;;;;5.10;1.73;;;;;;;6.22;100.00;96954.38;5037775;28;20209;-73
2022/10/04 01:57:37;;;;;;;3.80;2.33;;;;;;;6.19;100.00;96952.00;5037014;28;20198;-74
2022/10/04 02:00:06;;;;;;;4.93;2.70;;;;;;;6.30;100.00;96951.06;5036410;28;20228;-74
2022/10/04 02:02:40;;;;;;;4.23;2.50;;;;;;;6.35;100.00;96951.47;5033684;28;20208;-73
2022/10/04 02:05:10;;;;;;;5.43;2.10;;;;;;;6.30;100.00;96957.13;5036951;28;20208;-73
2022/10/04 02:07:39;;;;;;;4.93;2.83;;;;;;;6.15;100.00;96958.47;5036509;28;20673;-73
2022/10/04 02:10:11;;;;;;;5.00;2.70;;;;;;;6.18;100.00;96952.94;5036970;28;20232;-73
2022/10/04 02:12:44;;;;;;;4.63;2.80;;;;;;;6.18;100.00;96950.34;5036493;28;20205;-73
2022/10/04 02:15:12;;;;;;;5.93;2.73;;;;;;;6.04;100.00;96948.06;5036900;28;20239;-73
2022/10/04 02:17:42;;;;;;;4.97;2.63;;;;;;;5.99;100.00;96952.06;5036729;28;20293;-73
2022/10/04 02:20:13;;;;;;;5.70;2.67;;;;;;;6.05;100.00;96947.13;5036829;28;20232;-73
2022/10/04 02:22:42;;;;;;;10.03;2.90;;;;;;;5.91;100.00;96941.44;5036213;28;20197;-73
2022/10/04 02:25:11;;;;;;;3.67;2.43;;;;;;;6.02;100.00;96943.13;5036960;28;20677;-73
2022/10/04 02:27:38;;;;;;;6.17;2.30;;;;;;;5.91;100.00;96949.28;5036988;28;20251;-73
2022/10/04 02:30:08;;;;;;;6.30;2.20;;;;;;;6.08;100.00;96948.66;5036433;28;20221;-73
2022/10/04 02:35:21;;;;;;;5.03;2.50;;;;;;;6.06;100.00;96945.34;5036458;28;20254;-74
2022/10/04 02:37:53;;;;;;;10.50;2.50;;;;;;;6.19;100.00;96951.19;5036470;28;20206;-73
2022/10/04 02:40:29;;;;;;;9.87;2.97;;;;;;;6.18;100.00;96947.72;5036657;28;20217;-73
2022/10/04 02:42:59;;;;;;;5.30;2.60;;;;;;;6.23;100.00;96950.75;5036205;28;20215;-73
2022/10/04 02:45:33;;;;;;;3.60;2.30;;;;;;;6.26;100.00;96952.28;5036407;28;21220;-73
2022/10/04 02:48:04;;;;;;;14.13;2.97;;;;;;;6.32;100.00;96943.91;5036838;28;20220;-73
2022/10/04 02:50:37;;;;;;;6.20;2.90;;;;;;;6.43;100.00;96947.25;5036880;28;20221;-73
2022/10/04 02:53:14;;;;;;;5.70;2.70;;;;;;;6.46;100.00;96944.34;5033867;28;20208;-73
2022/10/04 02:55:43;;;;;;;5.03;2.70;;;;;;;6.58;100.00;96940.66;5036785;28;20205;-73
2022/10/04 02:58:14;;;;;;;8.63;2.77;;;;;;;6.53;100.00;96936.78;5036271;28;20205;-72
2022/10/04 03:00:47;;;;;;;9.73;2.37;;;;;;;6.67;100.00;96924.94;5033130;28;21043;-73
2022/10/04 03:03:19;;;;;;;18.73;2.87;;;;;;;6.62;100.00;96923.72;5040162;28;20201;-73
2022/10/04 03:05:56;;;;;;;11.70;3.20;;;;;;;6.48;100.00;96913.63;5041269;28;20197;-73
2022/10/04 03:08:24;;;;;;;8.37;3.63;;;;;;;6.46;100.00;96905.06;5039863;28;20572;-72
2022/10/04 03:10:52;;;;;;;7.23;3.00;;;;;;;6.55;100.00;96908.69;5038500;28;20604;-73
2022/10/04 03:13:20;;;;;;;7.83;2.87;;;;;;;6.64;100.00;96910.47;5040075;28;20207;-73
2022/10/04 03:15:49;;;;;;;4.90;2.90;;;;;;;6.58;100.00;96906.63;5040342;28;20201;-73
2022/10/04 03:18:17;;;;;;;10.67;3.17;;;;;;;6.59;100.00;96910.06;5040253;28;20224;-73
2022/10/04 03:20:45;;;;;;;11.10;3.50;;;;;;;6.52;100.00;96919.41;5040678;28;20224;-73
2022/10/04 03:23:15;;;;;;;5.80;3.10;;;;;;;6.58;100.00;96922.34;5039471;28;20201;-73
2022/10/04 03:25:49;;;;;;;11.20;3.00;;;;;;;6.65;100.00;96920.00;5040199;28;20783;-73
2022/10/04 03:28:17;;;;;;;5.87;3.07;;;;;;;6.59;100.00;96916.09;5040383;28;20205;-73
2022/10/04 03:30:45;;;;;;;9.40;3.13;;;;;;;6.59;100.00;96918.72;5039794;28;20217;-73
2022/10/04 03:33:17;;;;;;;19.13;2.60;;;;;;;6.60;100.00;96917.78;5038867;28;20201;-73
2022/10/04 03:35:46;;;;;;;5.90;2.73;;;;;;;6.49;100.00;96923.16;5040422;28;20193;-73
2022/10/04 03:38:14;;;;;;;4.77;2.70;;;;;;;6.53;100.00;96923.69;5039835;28;20197;-73
2022/10/04 03:40:48;;;;;;;6.50;3.20;;;;;;;6.60;100.00;96924.81;5039389;28;20993;-73
2022/10/04 03:43:17;;;;;;;5.63;3.00;;;;;;;6.59;100.00;96921.34;5039571;28;20605;-73
2022/10/04 03:45:43;;;;;;;9.80;3.23;;;;;;;6.59;100.00;96910.88;5039821;28;20198;-73
2022/10/04 03:48:18;;;;;;;9.30;2.83;;;;;;;6.57;100.00;96910.19;5039358;28;20216;-73
2022/10/04 03:50:47;;;;;;;6.40;2.87;;;;;;;6.51;100.00;96910.72;5039782;28;20220;-73
2022/10/04 03:53:28;;;;;;;4.13;2.47;;;;;;;6.63;100.00;96901.78;5036664;28;20573;-73
2022/10/04 03:55:54;;;;;;;4.63;2.87;;;;;;;6.49;100.00;96894.34;5039560;28;20213;-73
2022/10/04 03:58:24;;;;;;;4.50;2.83;;;;;;;6.49;100.00;96893.50;5039354;28;20197;-73
2022/10/04 04:01:04;;;;;;;3.73;2.57;;;;;;;6.52;100.00;96894.06;5039334;28;20279;-73
2022/10/04 04:03:41;;;;;;;5.40;3.13;;;;;;;6.44;100.00;96898.31;5038473;28;20205;-74
2022/10/04 04:06:15;;;;;;;5.83;2.97;;;;;;;6.52;100.00;96901.06;5039249;28;20209;-73
2022/10/04 04:08:45;;;;;;;7.30;3.37;;;;;;;6.44;100.00;96891.31;5039568;28;20205;-73
2022/10/04 04:11:18;;;;;;;6.27;3.07;;;;;;;6.50;100.00;96889.94;5039046;28;20232;-72
2022/10/04 04:13:50;;;;;;;5.20;2.53;;;;;;;6.47;100.00;96892.84;5038211;28;20193;-72
2022/10/04 04:16:19;;;;;;;5.10;3.10;;;;;;;6.48;100.00;96894.47;5040023;28;20197;-73
2022/10/04 04:18:48;;;;;;;6.30;3.27;;;;;;;6.53;100.00;96890.50;5038780;28;20556;-73
2022/10/04 04:21:18;;;;;;;5.37;3.30;;;;;;;6.46;100.00;96894.59;5038276;28;20232;-73
2022/10/04 04:23:49;;;;;;;4.80;2.87;;;;;;;6.46;100.00;96899.84;5038753;28;20205;-73
2022/10/04 04:26:23;;;;;;;4.57;3.10;;;;;;;6.45;100.00;96903.41;5038837;28;20844;-73
2022/10/04 04:28:56;;;;;;;4.77;3.00;;;;;;;6.44;100.00;96900.94;5039028;28;20254;-73
2022/10/04 04:31:26;;;;;;;5.97;3.00;;;;;;;6.39;100.00;96918.84;5038285;28;20695;-72
2022/10/04 04:33:59;;;;;;;10.30;3.63;;;;;;;6.44;100.00;96922.72;5038314;28;20209;-72
2022/10/04 04:36:27;;;;;;;12.67;3.83;;;;;;;6.44;100.00;96933.19;5038413;28;20212;-74
2022/10/04 04:41:39;;;;;;;6.93;2.70;;;;;;;6.32;100.00;96955.19;5038848;28;20223;-72
2022/10/04 04:44:17;;;;;;;4.67;2.57;;;;;;;6.29;100.00;96959.88;5037590;28;20275;-72
2022/10/04 04:46:44;;;;;;;4.00;2.63;;;;;;;6.08;100.00;96957.34;5038911;28;20200;-73
2022/10/04 04:49:11;;;;;;;4.33;2.80;;;;;;;6.06;100.00;96953.19;5038116;28;20213;-73
2022/10/04 04:51:40;;;;;;;6.50;3.30;;;;;;;6.10;100.00;96949.34;5036044;28;20605;-73
2022/10/04 04:54:07;;;;;;;5.27;2.90;;;;;;;6.03;100.00;96936.94;5037764;28;20201;-72
2022/10/04 04:56:35;;;;;;;5.47;3.03;;;;;;;5.96;100.00;96920.09;5038644;28;20202;-73
2022/10/04 04:59:06;;;;;;;6.07;2.77;;;;;;;5.78;100.00;96924.28;5038830;28;20209;-72
2022/10/04 05:01:36;;;;;;;9.20;2.93;;;;;;;6.07;100.00;96918.22;5038680;28;20235;-72
2022/10/04 05:04:04;;;;;;;22.73;3.20;;;;;;;6.00;100.00;96926.75;5037300;28;21503;-72
2022/10/04 05:06:33;;;;;;;14.47;3.00;;;;;;;6.05;100.00;96920.97;5038391;28;20252;-72
2022/10/04 05:09:00;;;;;;;5.07;2.97;;;;;;;6.09;100.00;96930.19;5038662;28;20220;-72
2022/10/04 05:11:29;;;;;;;5.13;2.83;;;;;;;6.22;100.00;96925.56;5038109;28;20264;-72
2022/10/04 05:14:00;;;;;;;4.57;2.50;;;;;;;6.18;100.00;96937.25;5037223;28;20209;-72
2022/10/04 05:16:31;;;;;;;4.77;2.40;;;;;;;6.10;100.00;96926.63;5038332;28;20674;-72
2022/10/04 05:19:01;;;;;;;3.87;2.53;;;;;;;6.26;100.00;96926.97;5038095;28;20578;-72
2022/10/04 05:21:31;;;;;;;3.97;2.60;;;;;;;6.26;100.00;96920.88;5037945;28;20213;-72
2022/10/04 05:24:09;;;;;;;3.50;2.50;;;;;;;6.18;100.00;96913.69;5037500;28;20218;-72
2022/10/04 05:26:35;;;;;;;5.53;2.53;;;;;;;6.26;100.00;96907.78;5037798;28;20208;-72
2022/10/04 05:29:09;;;;;;;4.63;3.03;;;;;;;6.39;100.00;96903.13;5037750;28;20202;-73
2022/10/04 05:31:45;;;;;;;3.70;2.37;;;;;;;6.47;100.00;96911.16;5037751;28;21311;-73
2022/10/04 05:34:21;;;;;;;9.83;2.80;;;;;;;6.47;100.00;96919.81;5036374;28;20262;-72
2022/10/04 05:36:58;;;;;;;5.10;2.70;;;;;;;6.53;100.00;96924.53;5036429;28;21088;-71
2022/10/04 05:39:35;;;;;;;9.40;3.00;;;;;;;6.54;100.00;96928.78;5036411;28;20204;-73
2022/10/04 05:42:11;;;;;;;5.57;2.43;;;;;;;6.62;100.00;96921.09;5036191;28;20201;-73
2022/10/04 05:44:49;;;;;;;15.20;2.93;;;;;;;6.54;100.00;96920.09;5035935;28;20616;-73
2022/10/04 05:47:21;;;;;;;4.33;2.67;;;;;;;6.37;100.00;96920.78;5034285;28;20390;-73
2022/10/04 05:49:51;;;;;;;6.63;3.07;;;;;;;6.55;100.00;96919.97;5036468;28;20299;-72
2022/10/04 05:52:29;;;;;;;7.93;2.70;;;;;;;6.55;100.00;96927.81;5036215;28;20221;-72
2022/10/04 05:55:16;;;;;;;5.50;2.90;;;;;;;6.65;100.00;96935.72;5036869;28;20239;-72
2022/10/04 05:57:53;;;;;;;10.53;2.67;;;;;;;6.56;100.00;96934.72;5036596;28;20289;-72
2022/10/04 06:00:20;;;;;;;7.00;2.43;;;;;;;6.58;100.00;96932.81;5036091;28;20630;-72
2022/10/04 06:03:27;;;;;;;4.17;2.20;;;;;;;6.65;100.00;96932.09;5036435;28;20197;-73
2022/10/04 06:06:01;;;;;;;6.73;2.20;;;;;;;6.63;100.00;96930.56;5036808;28;20197;-73
2022/10/04 06:08:49;;;;;;;5.83;1.90;;;;;;;6.65;100.00;96934.72;5036583;28;20216;-72
2022/10/04 06:11:29;;;;;;;3.67;2.40;;;;;;;6.62;100.00;96931.56;5036075;28;20221;-72
2022/10/04 06:14:37;;;;;;;3.37;2.07;;;;;;;6.66;100.00;96932.94;5035715;28;20209;-72
2022/10/04 06:17:22;;;;;;;2.73;1.87;;;;;;;6.55;100.00;96927.81;5036755;28;20558;-72
2022/10/04 06:20:15;;;;;;;3.23;2.27;;;;;;;6.65;100.00;96917.38;5036241;28;20216;-72
2022/10/04 06:22:47;;;;;;;2.97;2.17;;;;;;;6.81;100.00;96921.94;5035354;28;20705;-72
2022/10/04 06:25:20;;;;;;;3.73;2.30;;;;;;;6.89;100.00;96919.44;5036612;28;20208;-73
2022/10/04 06:27:53;;;;;;;7.67;2.77;;;;;;;6.92;100.00;96928.81;5035857;28;20201;-73
2022/10/04 06:30:20;;;;;;;4.93;2.80;;;;;;;6.95;100.00;96929.38;5035685;28;20717;-73
2022/10/04 06:33:24;;;;;;;3.27;2.43;;;;;;;7.12;100.00;96930.47;5035569;28;20256;-72
2022/10/04 06:36:23;;;;;;;4.13;2.63;;;;;;;7.16;100.00;96940.53;5032711;28;20693;-72
2022/10/04 06:39:42;;;;;;;4.13;2.40;;;;;;;7.20;100.00;96927.97;5035657;28;20232;-72
2022/10/04 06:42:38;;;;;;;4.23;2.70;;;;;;;7.20;100.00;96941.06;4973730;28;20195;-72
2022/10/04 06:45:28;;;;;;;3.23;2.00;;;;;;;7.05;100.00;96934.59;5035720;28;20342;-72
2022/10/04 06:48:18;;;;;;;3.50;2.10;;;;;;;7.16;100.00;96944.94;5035454;28;20198;-72
2022/10/04 06:50:50;;;;;;;5.87;2.77;;;;;;;7.14;100.00;96944.25;5036582;28;20225;-72
2022/10/04 06:53:34;;;;;;;4.87;2.60;;;;;;;7.21;100.00;96946.19;5035063;28;20217;-73
2022/10/04 06:56:39;;;;;;;4.43;2.33;;;;;;;7.20;100.00;96946.31;5035756;28;20479;-73
2022/10/04 06:59:33;;;;;;;4.70;2.50;;;;;;;7.19;100.00;96949.91;5004092;28;20441;-73
2022/10/04 07:02:05;;;;;;;4.97;2.60;;;;;;;7.21;100.00;96953.22;5035452;28;20405;-73
2022/10/04 07:04:38;;;;;;;4.90;2.83;;;;;;;7.27;100.00;96956.94;5035981;28;20669;-73
2022/10/04 07:07:34;;;;;;;3.80;2.40;;;;;;;7.36;100.00;96958.72;5035465;28;20521;-73
2022/10/04 07:10:10;;;;;;;4.53;2.70;;;;;;;7.31;100.00;96950.44;5034957;28;20327;-73
2022/10/04 07:12:42;;;;;;;5.27;2.60;;;;;;;7.45;100.00;96959.69;5035430;28;20225;-73
2022/10/04 07:15:19;;;;;;;4.90;3.03;;;;;;;7.50;100.00;96953.03;5035800;28;20205;-73
2022/10/04 07:17:49;;;;;;;6.17;2.97;;;;;;;7.45;100.00;96955.25;5035645;28;20203;-73
2022/10/04 07:20:21;;;;;;;6.23;3.00;;;;;;;7.59;100.00;96959.25;5035680;28;20236;-73
2022/10/04 07:22:55;;;;;;;5.03;3.07;;;;;;;7.67;100.00;96960.16;5035165;28;20243;-73
2022/10/04 07:25:26;;;;;;;5.37;3.23;;;;;;;7.82;100.00;96958.75;5035432;28;20214;-73
2022/10/04 07:30:51;;;;;;;7.00;3.23;;;;;;;7.88;100.00;96968.69;5035240;28;20380;-73
2022/10/04 07:33:22;;;;;;;6.30;3.37;;;;;;;7.91;100.00;96958.72;5035146;28;20212;-73
2022/10/04 07:35:53;;;;;;;4.73;2.70;;;;;;;7.95;100.00;96960.06;5035802;28;20284;-73
2022/10/04 07:38:26;;;;;;;5.90;3.07;;;;;;;8.00;100.00;96962.28;5035983;28;20355;-73
2022/10/04 07:41:11;;;;;;;6.43;3.27;;;;;;;7.93;100.00;96966.47;5034916;28;20716;-73
2022/10/04 07:43:49;;;;;;;15.33;3.30;;;;;;;8.02;100.00;96960.34;5034477;28;20206;-73
2022/10/04 07:46:23;;;;;;;4.33;2.73;;;;;;;7.87;100.00;96972.28;5033088;28;20197;-73
2022/10/04 07:48:50;;;;;;;5.80;2.87;;;;;;;7.92;100.00;96970.06;5039023;28;20212;-73
2022/10/04 07:51:26;;;;;;;5.83;3.13;;;;;;;8.13;100.00;96973.28;5039070;28;20232;-73
2022/10/04 07:53:57;;;;;;;4.87;3.10;;;;;;;8.17;100.00;96987.78;5038491;28;20232;-73
2022/10/04 07:56:30;;;;;;;6.73;3.53;;;;;;;8.29;100.00;96987.47;5039504;28;20680;-73
2022/10/04 07:59:10;;;;;;;5.90;3.27;;;;;;;8.33;100.00;96990.66;5038817;28;20503;-73
2022/10/04 08:01:46;;;;;;;7.47;3.67;;;;;;;8.48;100.00;96985.56;5039105;28;20372;-73
2022/10/04 08:04:27;;;;;;;13.10;4.30;;;;;;;8.68;100.00;96992.38;5038244;28;20653;-73
2022/10/04 08:06:58;;;;;;;8.93;3.63;;;;;;;8.54;100.00;96992.03;5038803;28;20611;-73
2022/10/04 08:09:36;;;;;;;8.57;4.93;;;;;;;8.58;100.00;96990.81;5038658;28;20205;-73
2022/10/04 08:12:16;;;;;;;12.20;4.77;;;;;;;8.72;100.00;96983.22;5038260;28;20231;-73
2022/10/04 08:14:55;;;;;;;8.53;4.20;;;;;;;8.66;100.00;96989.06;5038410;28;20919;-73
2022/10/04 08:17:33;;;;;;;15.13;4.63;;;;;;;8.70;100.00;96990.44;5039150;28;20208;-73
2022/10/04 08:20:18;;;;;;;10.33;4.80;;;;;;;8.95;100.00;96989.72;5038389;28;20229;-73
2022/10/04 08:22:57;;;;;;;7.20;3.93;;;;;;;9.18;100.00;96985.69;5037245;28;20661;-73
2022/10/04 08:25:31;;;;;;;7.67;4.30;;;;;;;9.08;100.00;96990.19;5038461;28;20197;-73
2022/10/04 08:31:03;;;;;;;5.70;3.23;;;;;;;9.29;100.00;96978.41;5016644;28;20225;-73
2022/10/04 08:33:51;;;;;;;6.00;3.40;;;;;;;9.57;100.00;96976.47;5037515;28;20205;-74
2022/10/04 08:36:30;;;;;;;7.00;3.40;;;;;;;9.57;100.00;96971.22;5038310;28;20197;-74
2022/10/04 08:38:58;;;;;;;6.90;3.57;;;;;;;9.63;100.00;96965.34;5038131;28;20209;-74
2022/10/04 08:42:03;;;;;;;8.30;3.90;;;;;;;9.70;100.00;96960.13;5038429;28;20217;-74
2022/10/04 08:44:57;;;;;;;6.67;3.83;;;;;;;9.86;100.00;96965.50;5037522;28;20201;-74
2022/10/04 08:47:58;;;;;;;7.13;3.80;;;;;;;9.99;100.00;96958.06;5034828;28;20691;-74
2022/10/04 08:50:49;;;;;;;6.47;4.07;;;;;;;9.98;100.00;96969.56;5018014;28;20221;-74
2022/10/04 08:53:48;;;;;;;5.73;3.33;;;;;;;10.10;100.00;96960.41;5037265;28;20213;-74
2022/10/04 08:56:24;;;;;;;5.90;3.47;;;;;;;10.37;100.00;96962.84;5011700;28;20205;-74
2022/10/04 08:59:10;;;;;;;7.03;3.77;;;;;;;10.35;100.00;96960.38;5039010;28;20211;-74
2022/10/04 09:01:58;;;;;;;8.37;3.87;;;;;;;10.53;100.00;96958.47;5037738;28;20228;-74
2022/10/04 09:04:59;;;;;;;10.90;4.47;;;;;;;10.80;100.00;96954.75;5036360;28;20201;-73
2022/10/04 09:07:48;;;;;;;7.30;3.83;;;;;;;10.90;100.00;96960.72;5037790;28;20588;-74
2022/10/04 09:10:38;;;;;;;11.60;3.83;;;;;;;11.00;100.00;96951.69;5037321;28;20232;-73
2022/10/04 09:13:23;;;;;;;9.90;4.00;;;;;;;11.03;100.00;96957.44;5036957;28;20236;-73
2022/10/04 09:15:55;;;;;;;5.63;3.50;;;;;;;10.72;100.00;96949.47;5037378;28;20204;-73
2022/10/04 09:19:02;;;;;;;5.47;3.47;;;;;;;10.96;100.00;96950.34;5037490;28;20208;-73
2022/10/04 09:21:42;;;;;;;6.83;3.73;;;;;;;10.95;100.00;96946.88;5037953;28;20217;-73
2022/10/04 09:24:39;;;;;;;7.50;4.53;;;;;;;10.73;100.00;96940.56;5036465;28;20676;-73
2022/10/04 09:27:24;;;;;;;8.83;4.77;;;;;;;10.89;100.00;96948.53;5037111;28;20204;-74
2022/10/04 09:30:13;;;;;;;10.83;5.20;;;;;;;11.03;100.00;96941.59;5037287;28;20201;-73
2022/10/04 09:33:08;;;;;;;11.37;5.77;;;;;;;11.09;100.00;96938.31;5036342;28;20243;-73
2022/10/04 09:36:05;;;;;;;8.57;4.97;;;;;;;11.18;100.00;96942.63;5037190;28;20201;-73
2022/10/04 09:38:53;;;;;;;7.37;4.70;;;;;;;11.03;100.00;96941.59;5037206;28;20204;-73
2022/10/04 09:41:42;;;;;;;10.33;5.33;;;;;;;10.94;100.00;96950.50;5036888;28;20228;-73
2022/10/04 09:44:42;;;;;;;9.57;4.83;;;;;;;11.02;100.00;96961.09;5036395;28;20436;-73
2022/10/04 09:47:36;;;;;;;9.10;4.53;;;;;;;11.07;100.00;96963.22;5033676;28;20666;-73
2022/10/04 09:50:38;;;;;;;7.87;4.80;;;;;;;11.12;100.00;96974.91;5036289;28;20749;-73
2022/10/04 09:53:20;;;;;;;8.23;4.63;;;;;;;10.96;100.00;96963.53;5036650;28;20294;-73
2022/10/04 09:56:13;;;;;;;6.63;4.37;;;;;;;11.09;100.00;96964.72;5036492;28;20205;-73
2022/10/04 09:59:03;;;;;;;8.20;4.60;;;;;;;11.47;100.00;96958.81;5036386;28;20227;-73
2022/10/04 10:01:35;;;;;;;8.23;5.13;;;;;;;11.75;100.00;96950.41;5037292;28;20221;-73
2022/10/04 10:04:23;;;;;;;8.77;5.30;;;;;;;11.83;100.00;96949.56;5036164;28;20208;-73
2022/10/04 10:07:01;;;;;;;6.97;4.33;;;;;;;11.94;100.00;96943.94;5023436;28;20193;-73
2022/10/04 10:15:31;;;;;;;7.47;4.47;;;;;;;12.41;100.00;96975.53;5036362;28;20767;-73
2022/10/04 10:18:08;;;;;;;8.73;4.77;;;;;;;12.56;100.00;96972.97;5036879;28;20597;-73
2022/10/04 10:21:11;;;;;;;10.18;4.72;;;;;;;12.54;100.00;96965.22;5036061;28;20587;-73
2022/10/04 10:23:55;;;;;;;8.90;4.10;;;;;;;12.77;100.00;96966.94;5035705;28;20197;-74
2022/10/04 10:26:49;;;;;;;9.10;4.60;;;;;;;12.80;100.00;96965.75;5035935;28;20201;-74
2022/10/04 10:29:48;;;;;;;6.17;4.07;;;;;;;13.03;100.00;96969.31;5029966;28;20288;-74
2022/10/04 10:32:51;;;;;;;8.23;4.37;;;;;;;13.24;100.00;96959.75;5035793;28;20198;-73
2022/10/04 10:35:33;;;;;;;9.80;4.53;;;;;;;13.32;100.00;96958.88;5036393;28;20969;-73
2022/10/04 10:38:23;;;;;;;8.48;4.20;;;;;;;13.36;100.00;96957.53;5036399;28;20208;-74
2022/10/04 10:41:06;;;;;;;7.25;3.88;;;;;;;13.47;100.00;96961.41;5035755;28;20904;-74
2022/10/04 10:43:52;;;;;;;8.27;4.30;;;;;;;13.65;100.00;96953.97;5035837;28;20224;-74
2022/10/04 10:46:48;;;;;;;7.97;4.28;;;;;;;13.68;99.51;96947.50;5033285;28;20639;-73
2022/10/04 10:49:35;;;;;;;8.20;4.60;;;;;;;13.71;100.00;96939.19;5036131;28;20213;-73
2022/10/04 10:52:33;;;;;;;7.55;4.80;;;;;;;13.56;99.21;96941.78;5036198;28;20599;-73
2022/10/04 10:55:52;;;;;;;8.52;4.60;;;;;;;13.97;100.00;96935.13;5022374;28;20494;-73
2022/10/04 10:58:52;;;;;;;7.25;4.28;;;;;;;13.95;100.00;96926.56;5035724;28;20586;-74
2022/10/04 11:01:45;;;;;;;12.40;4.53;;;;;;;14.20;100.00;96933.25;5035633;28;20714;-74
2022/10/04 11:04:30;;;;;;;8.35;3.92;;;;;;;14.08;100.00;96940.84;5035302;28;20207;-74
2022/10/04 11:07:26;;;;;;;5.35;3.92;;;;;;;14.32;100.00;96943.22;5036044;28;20216;-74
2022/10/04 11:10:10;;;;;;;6.15;3.60;;;;;;;14.28;100.00;96935.81;5035781;28;20202;-74
2022/10/04 11:13:01;;;;;;;8.45;4.20;;;;;;;14.50;100.00;96934.88;5034940;28;20201;-74
2022/10/04 11:15:48;;;;;;;5.43;3.58;;;;;;;14.42;100.00;96942.94;5006738;28;20657;-74
2022/10/04 11:18:50;;;;;;;6.30;4.10;;;;;;;14.44;100.00;96939.09;5035305;28;20212;-74
2022/10/04 11:21:53;;;;;;;6.68;3.35;;;;;;;14.36;100.00;96941.84;5035432;28;20220;-74
2022/10/04 11:25:00;;;;;;;6.63;3.20;;;;;;;14.46;98.88;96934.47;5040269;28;20208;-74
2022/10/04 11:27:49;;;;;;;5.50;2.83;;;;;;;14.33;100.00;96928.97;5039039;28;20193;-73
2022/10/04 11:30:23;;;;;;;7.15;3.42;;;;;;;14.27;100.00;96923.59;5038854;28;20224;-73
2022/10/04 11:33:28;;;;;;;8.27;3.85;;;;;;;14.32;100.00;96918.53;5039294;28;20280;-74
2022/10/04 11:36:24;;;;;;;5.72;3.15;;;;;;;14.39;100.00;96916.81;5038996;28;20270;-74
2022/10/04 11:39:02;;;;;;;5.00;3.10;;;;;;;14.39;100.00;96903.56;5039256;28;20490;-74
2022/10/04 11:41:46;;;;;;;7.05;3.53;;;;;;;14.79;99.20;96909.97;5038257;28;20311;-74
2022/10/04 11:44:34;;;;;;;7.13;3.22;;;;;;;14.85;98.46;96903.91;5036428;28;20576;-74
2022/10/04 11:47:10;;;;;;;7.22;3.72;;;;;;;14.52;100.00;96901.06;5035825;28;20593;-74
2022/10/04 11:50:02;;;;;;;5.22;3.47;;;;;;;14.79;100.00;96894.06;5038996;28;20215;-74
2022/10/04 11:53:02;;;;;;;7.22;4.30;;;;;;;14.73;100.00;96897.44;5038452;28;20215;-74
2022/10/04 11:55:56;;;;;;;7.47;3.42;;;;;;;14.62;100.00;96886.50;5026164;28;20790;-74
2022/10/04 11:58:31;;;;;;;8.07;3.47;;;;;;;14.86;100.00;96881.69;5038854;28;20651;-73
2022/10/04 12:01:31;;;;;;;12.13;3.95;;;;;;;14.95;97.17;96885.84;5039107;28;20225;-73
2022/10/04 12:04:40;;;;;;;7.88;3.53;;;;;;;15.20;98.91;96875.69;5038999;28;20618;-73
2022/10/04 12:07:27;;;;;;;7.30;3.10;;;;;;;15.37;96.41;96878.75;5039416;28;20205;-73
2022/10/04 12:10:03;;;;;;;6.75;3.33;;;;;;;15.45;94.51;96880.47;5038044;28;20212;-73
2022/10/04 12:12:52;;;;;;;7.68;3.13;;;;;;;15.41;95.91;96876.53;5038757;28;20189;-74
2022/10/04 12:15:33;;;;;;;7.47;2.50;;;;;;;15.33;96.14;96866.06;5038677;28;20600;-73
2022/10/04 12:18:22;;;;;;;6.93;2.95;;;;;;;15.60;96.33;96857.28;5038264;28;20320;-73
2022/10/04 12:21:11;;;;;;;6.70;2.72;;;;;;;16.00;90.89;96863.53;5039484;28;20221;-73
2022/10/04 12:24:16;;;;;;;4.70;2.60;;;;;;;15.90;92.76;96864.88;5038395;28;20197;-73
2022/10/04 12:27:04;;;;;;;5.57;2.60;;;;;;;15.93;90.99;96859.16;5005168;28;20212;-73
2022/10/04 12:30:02;;;;;;;4.80;2.30;;;;;;;15.98;91.61;96857.56;5038915;28;20231;-73
2022/10/04 12:32:35;;;;;;;3.42;2.30;;;;;;;15.90;89.41;96859.56;5037323;28;20685;-73
2022/10/04 12:35:22;;;;;;;7.03;2.55;;;;;;;15.98;90.15;96862.06;5039564;28;20545;-74
2022/10/04 12:38:10;;;;;;;6.90;3.20;;;;;;;15.89;88.00;96861.38;5038257;28;20286;-74
2022/10/04 12:40:45;;;;;;;5.65;2.22;;;;;;;16.00;87.31;96857.38;5036352;28;20759;-74
2022/10/04 12:43:20;;;;;;;5.63;2.83;;;;;;;15.85;88.22;96857.47;5035921;28;21101;-74
2022/10/04 12:46:03;;;;;;;6.30;2.67;;;;;;;16.02;87.35;96855.34;5036578;28;20205;-74